sensor_id;sensor_type;location;lat;lon;timestamp;pressure;altitude;pressure_sealevel;temperature;humidity
25084;BME280;13075;55.682;37.564;2023-05-23T00:01:19;99858.97;;;22.97;96.98
25084;BME280;13075;55.682;37.564;2023-05-23T00:03:45;99864.44;;;22.91;97.82
25084;BME280;13075;55.682;37.564;2023-05-23T00:06:11;99863.06;;;22.99;97.56
25084;BME280;13075;55.682;37.564;2023-05-23T00:08:36;99858.41;;;22.89;98.03
25084;BME280;13075;55.682;37.564;2023-05-23T00:11:02;99864.16;;;22.88;98.05
25084;BME280;13075;55.682;37.564;2023-05-23T00:13:27;99872.88;;;22.85;98.57
25084;BME280;13075;55.682;37.564;2023-05-23T00:15:53;99870.97;;;22.70;98.98
25084;BME280;13075;55.682;37.564;2023-05-23T00:18:18;99870.16;;;23.00;96.67
25084;BME280;13075;55.682;37.564;2023-05-23T00:20:44;99875.06;;;22.78;97.20
25084;BME280;13075;55.682;37.564;2023-05-23T00:23:11;99873.16;;;22.83;97.59
25084;BME280;13075;55.682;37.564;2023-05-23T00:25:43;99865.50;;;22.90;97.78
25084;BME280;13075;55.682;37.564;2023-05-23T00:28:12;99875.06;;;22.83;98.70
25084;BME280;13075;55.682;37.564;2023-05-23T00:30:38;99864.44;;;22.91;97.07
25084;BME280;13075;55.682;37.564;2023-05-23T00:33:04;99864.44;;;22.81;96.28
25084;BME280;13075;55.682;37.564;2023-05-23T00:35:30;99869.06;;;22.81;98.18
25084;BME280;13075;55.682;37.564;2023-05-23T00:37:55;99864.63;;;22.60;99.29
25084;BME280;13075;55.682;37.564;2023-05-23T00:40:21;99876.41;;;22.65;99.34
25084;BME280;13075;55.682;37.564;2023-05-23T00:42:47;99868.47;;;22.64;99.15
25084;BME280;13075;55.682;37.564;2023-05-23T00:45:12;99863.56;;;22.61;99.88
25084;BME280;13075;55.682;37.564;2023-05-23T00:47:41;99857.03;;;22.67;99.07
25084;BME280;13075;55.682;37.564;2023-05-23T00:50:08;99861.72;;;22.91;96.98
25084;BME280;13075;55.682;37.564;2023-05-23T00:52:35;99868.53;;;22.89;96.88
25084;BME280;13075;55.682;37.564;2023-05-23T00:55:01;99864.16;;;22.88;96.28
25084;BME280;13075;55.682;37.564;2023-05-23T00:57:27;99864.69;;;22.75;98.90
25084;BME280;13075;55.682;37.564;2023-05-23T00:59:52;99867.13;;;22.71;98.77
25084;BME280;13075;55.682;37.564;2023-05-23T01:02:18;99863.03;;;22.69;98.34
25084;BME280;13075;55.682;37.564;2023-05-23T01:04:46;99858.16;;;22.76;98.12
25084;BME280;13075;55.682;37.564;2023-05-23T01:07:12;99854.59;;;22.80;98.25
25084;BME280;13075;55.682;37.564;2023-05-23T01:09:38;99847.78;;;22.88;97.27
25084;BME280;13075;55.682;37.564;2023-05-23T01:18:06;99852.91;;;22.59;99.34
25084;BME280;13075;55.682;37.564;2023-05-23T01:20:23;99852.16;;;22.84;97.22
25084;BME280;13075;55.682;37.564;2023-05-23T01:22:58;99848.81;;;22.62;97.31
25084;BME280;13075;55.682;37.564;2023-05-23T01:25:34;99848.03;;;22.71;97.42
25084;BME280;13075;55.682;37.564;2023-05-23T01:28:07;99848.31;;;22.70;97.45
25084;BME280;13075;55.682;37.564;2023-05-23T01:30:39;99848.59;;;22.83;97.00
25084;BME280;13075;55.682;37.564;2023-05-23T01:33:06;99845.34;;;22.91;95.75
25084;BME280;13075;55.682;37.564;2023-05-23T01:35:32;99849.44;;;22.89;95.22
25084;BME280;13075;55.682;37.564;2023-05-23T01:37:57;99850.50;;;22.83;96.87
25084;BME280;13075;55.682;37.564;2023-05-23T01:40:23;99859.50;;;22.73;95.51
25084;BME280;13075;55.682;37.564;2023-05-23T01:42:49;99857.03;;;22.77;95.56
25084;BME280;13075;55.682;37.564;2023-05-23T01:45:16;99851.59;;;22.82;94.75
25084;BME280;13075;55.682;37.564;2023-05-23T01:47:42;99851.31;;;22.73;97.79
25084;BME280;13075;55.682;37.564;2023-05-23T01:50:09;99851.59;;;22.77;96.42
25084;BME280;13075;55.682;37.564;2023-05-23T01:52:35;99841.78;;;22.91;96.46
25084;BME280;13075;55.682;37.564;2023-05-23T01:55:00;99839.31;;;23.00;96.03
25084;BME280;13075;55.682;37.564;2023-05-23T01:57:28;99842.31;;;22.98;93.88
25084;BME280;13075;55.682;37.564;2023-05-23T01:59:55;99850.78;;;23.17;93.39
25084;BME280;13075;55.682;37.564;2023-05-23T02:02:20;99842.31;;;23.08;92.00
25084;BME280;13075;55.682;37.564;2023-05-23T02:04:50;99840.09;;;23.20;91.90
25084;BME280;13075;55.682;37.564;2023-05-23T02:07:16;99841.19;;;23.24;90.95
25084;BME280;13075;55.682;37.564;2023-05-23T02:09:47;99840.66;;;22.92;94.23
25084;BME280;13075;55.682;37.564;2023-05-23T02:12:12;99834.41;;;23.07;93.95
25084;BME280;13075;55.682;37.564;2023-05-23T02:14:38;99838.22;;;23.01;94.42
25084;BME280;13075;55.682;37.564;2023-05-23T02:17:03;99844.75;;;22.74;96.89
25084;BME280;13075;55.682;37.564;2023-05-23T02:19:29;99852.13;;;22.74;97.27
25084;BME280;13075;55.682;37.564;2023-05-23T02:21:54;99842.28;;;22.53;91.13
25084;BME280;13075;55.682;37.564;2023-05-23T02:24:20;99828.06;;;22.56;95.72
25084;BME280;13075;55.682;37.564;2023-05-23T02:26:45;99832.22;;;22.83;95.80
25084;BME280;13075;55.682;37.564;2023-05-23T02:29:11;99827.28;;;22.60;97.88
25084;BME280;13075;55.682;37.564;2023-05-23T02:31:36;99831.13;;;22.94;96.18
25084;BME280;13075;55.682;37.564;2023-05-23T02:34:02;99828.41;;;23.05;94.83
25084;BME280;13075;55.682;37.564;2023-05-23T02:36:27;99830.03;;;23.06;93.33
25084;BME280;13075;55.682;37.564;2023-05-23T02:38:53;99827.81;;;23.18;91.61
25084;BME280;13075;55.682;37.564;2023-05-23T02:41:20;99831.13;;;23.05;92.09
25084;BME280;13075;55.682;37.564;2023-05-23T02:43:46;99835.78;;;23.04;92.03
25084;BME280;13075;55.682;37.564;2023-05-23T02:46:11;99832.72;;;23.31;91.26
25084;BME280;13075;55.682;37.564;2023-05-23T02:48:37;99836.56;;;22.94;90.65
25084;BME280;13075;55.682;37.564;2023-05-23T02:51:04;99828.63;;;23.28;91.16
25084;BME280;13075;55.682;37.564;2023-05-23T02:53:29;99830.56;;;23.28;90.54
25084;BME280;13075;55.682;37.564;2023-05-23T02:55:55;99840.66;;;23.22;89.59
25084;BME280;13075;55.682;37.564;2023-05-23T02:58:20;99846.69;;;22.94;75.76
25084;BME280;13075;55.682;37.564;2023-05-23T03:00:46;99842.59;;;22.86;74.81
25084;BME280;13075;55.682;37.564;2023-05-23T03:03:11;99844.75;;;23.30;74.13
25084;BME280;13075;55.682;37.564;2023-05-23T03:05:37;99856.22;;;23.42;71.23
25084;BME280;13075;55.682;37.564;2023-05-23T03:08:02;99849.91;;;23.31;70.53
25084;BME280;13075;55.682;37.564;2023-05-23T03:10:29;99842.84;;;22.65;74.36
25084;BME280;13075;55.682;37.564;2023-05-23T03:12:54;99839.88;;;23.02;72.85
25084;BME280;13075;55.682;37.564;2023-05-23T03:15:20;99842.25;;;23.64;69.72
25084;BME280;13075;55.682;37.564;2023-05-23T03:17:45;99845.03;;;23.13;70.16
25084;BME280;13075;55.682;37.564;2023-05-23T03:20:14;99843.41;;;22.72;71.92
25084;BME280;13075;55.682;37.564;2023-05-23T03:22:39;99831.38;;;23.48;68.47
25084;BME280;13075;55.682;37.564;2023-05-23T03:25:07;99845.25;;;23.57;67.63
25084;BME280;13075;55.682;37.564;2023-05-23T03:27:33;99841.41;;;23.68;65.90
25084;BME280;13075;55.682;37.564;2023-05-23T03:29:59;99829.75;;;23.37;66.85
25084;BME280;13075;55.682;37.564;2023-05-23T03:32:24;99839.56;;;23.48;65.11
25084;BME280;13075;55.682;37.564;2023-05-23T03:34:50;99835.19;;;23.32;66.02
25084;BME280;13075;55.682;37.564;2023-05-23T03:37:15;99825.91;;;23.13;65.73
25084;BME280;13075;55.682;37.564;2023-05-23T03:39:42;99827.56;;;24.03;63.02
25084;BME280;13075;55.682;37.564;2023-05-23T03:42:08;99830.88;;;24.49;62.22
25084;BME280;13075;55.682;37.564;2023-05-23T03:44:33;99820.66;;;24.21;62.00
25084;BME280;13075;55.682;37.564;2023-05-23T03:47:00;99824.97;;;24.71;61.12
25084;BME280;13075;55.682;37.564;2023-05-23T03:49:26;99827.41;;;23.80;62.08
25084;BME280;13075;55.682;37.564;2023-05-23T03:51:51;99823.81;;;24.43;60.15
25084;BME280;13075;55.682;37.564;2023-05-23T03:54:17;99817.53;;;23.89;61.93
25084;BME280;13075;55.682;37.564;2023-05-23T03:56:43;99820.13;;;24.19;60.42
25084;BME280;13075;55.682;37.564;2023-05-23T03:59:08;99812.50;;;24.55;59.76
25084;BME280;13075;55.682;37.564;2023-05-23T04:01:34;99812.94;;;24.72;59.31
25084;BME280;13075;55.682;37.564;2023-05-23T04:04:00;99816.97;;;23.97;60.16
25084;BME280;13075;55.682;37.564;2023-05-23T04:06:29;99817.63;;;24.28;60.26
25084;BME280;13075;55.682;37.564;2023-05-23T04:08:55;99820.34;;;24.33;60.32
25084;BME280;13075;55.682;37.564;2023-05-23T04:11:21;99828.63;;;23.23;62.62
25084;BME280;13075;55.682;37.564;2023-05-23T04:13:47;99831.75;;;23.86;61.37
25084;BME280;13075;55.682;37.564;2023-05-23T04:16:12;99831.97;;;24.09;61.12
25084;BME280;13075;55.682;37.564;2023-05-23T04:18:38;99839.06;;;24.00;60.17
25084;BME280;13075;55.682;37.564;2023-05-23T04:21:05;99836.13;;;23.92;61.13
25084;BME280;13075;55.682;37.564;2023-05-23T04:23:33;99815.97;;;24.32;59.52
25084;BME280;13075;55.682;37.564;2023-05-23T04:25:59;99827.47;;;24.67;58.51
25084;BME280;13075;55.682;37.564;2023-05-23T04:28:33;99821.31;;;24.86;57.23
25084;BME280;13075;55.682;37.564;2023-05-23T04:30:59;99816.75;;;25.10;56.77
25084;BME280;13075;55.682;37.564;2023-05-23T04:33:29;99821.06;;;24.87;56.69
25084;BME280;13075;55.682;37.564;2023-05-23T04:35:55;99820.91;;;24.68;57.08
25084;BME280;13075;55.682;37.564;2023-05-23T04:38:21;99821.16;;;23.79;58.36
25084;BME280;13075;55.682;37.564;2023-05-23T04:40:50;99810.94;;;24.49;58.54
25084;BME280;13075;55.682;37.564;2023-05-23T04:43:35;99820.56;;;24.41;58.42
25084;BME280;13075;55.682;37.564;2023-05-23T04:46:32;99821.78;;;24.20;58.50
25084;BME280;13075;55.682;37.564;2023-05-23T04:49:24;99820.38;;;24.66;57.58
25084;BME280;13075;55.682;37.564;2023-05-23T04:51:50;99818.56;;;24.08;57.19
25084;BME280;13075;55.682;37.564;2023-05-23T04:54:25;99815.84;;;23.98;57.73
25084;BME280;13075;55.682;37.564;2023-05-23T04:56:52;99822.75;;;24.78;56.62
25084;BME280;13075;55.682;37.564;2023-05-23T04:59:21;99809.00;;;24.54;55.93
25084;BME280;13075;55.682;37.564;2023-05-23T05:01:46;99816.41;;;24.88;55.38
25084;BME280;13075;55.682;37.564;2023-05-23T05:04:12;99810.75;;;24.74;55.09
25084;BME280;13075;55.682;37.564;2023-05-23T05:06:39;99811.31;;;25.05;54.72
25084;BME280;13075;55.682;37.564;2023-05-23T05:09:07;99817.78;;;25.14;54.22
25084;BME280;13075;55.682;37.564;2023-05-23T05:11:32;99836.41;;;25.46;54.59
25084;BME280;13075;55.682;37.564;2023-05-23T05:13:58;99845.47;;;25.12;55.22
25084;BME280;13075;55.682;37.564;2023-05-23T05:16:24;99847.69;;;24.71;55.18
25084;BME280;13075;55.682;37.564;2023-05-23T05:18:49;99846.56;;;24.77;55.06
25084;BME280;13075;55.682;37.564;2023-05-23T05:21:17;99851.03;;;24.63;56.09
25084;BME280;13075;55.682;37.564;2023-05-23T05:23:43;99851.81;;;23.61;58.54
25084;BME280;13075;55.682;37.564;2023-05-23T05:26:08;99849.31;;;23.70;59.14
25084;BME280;13075;55.682;37.564;2023-05-23T05:28:34;99849.50;;;23.88;58.33
25084;BME280;13075;55.682;37.564;2023-05-23T05:31:00;99848.28;;;23.15;58.92
25084;BME280;13075;55.682;37.564;2023-05-23T05:33:30;99845.66;;;23.94;58.92
25084;BME280;13075;55.682;37.564;2023-05-23T05:36:09;99854.94;;;23.98;59.37
25084;BME280;13075;55.682;37.564;2023-05-23T05:38:34;99842.41;;;24.46;58.28
25084;BME280;13075;55.682;37.564;2023-05-23T05:41:00;99840.34;;;24.28;59.04
25084;BME280;13075;55.682;37.564;2023-05-23T05:43:31;99842.41;;;23.82;60.34
25084;BME280;13075;55.682;37.564;2023-05-23T05:45:56;99836.81;;;24.23;58.69
25084;BME280;13075;55.682;37.564;2023-05-23T05:48:22;99842.25;;;23.64;59.54
25084;BME280;13075;55.682;37.564;2023-05-23T05:50:49;99833.22;;;24.27;59.19
25084;BME280;13075;55.682;37.564;2023-05-23T05:53:14;99833.69;;;24.39;59.13
25084;BME280;13075;55.682;37.564;2023-05-23T05:55:40;99835.16;;;23.58;60.89
25084;BME280;13075;55.682;37.564;2023-05-23T05:58:06;99841.72;;;23.46;60.81
25084;BME280;13075;55.682;37.564;2023-05-23T06:00:46;99830.31;;;24.52;59.04
25084;BME280;13075;55.682;37.564;2023-05-23T06:03:13;99835.66;;;24.34;59.85
25084;BME280;13075;55.682;37.564;2023-05-23T06:05:51;99834.16;;;24.02;61.15
25084;BME280;13075;55.682;37.564;2023-05-23T06:08:16;99829.38;;;24.33;59.29
25084;BME280;13075;55.682;37.564;2023-05-23T06:10:42;99828.03;;;24.69;59.30
25084;BME280;13075;55.682;37.564;2023-05-23T06:13:08;99832.63;;;24.79;59.41
25084;BME280;13075;55.682;37.564;2023-05-23T06:15:35;99832.59;;;23.81;62.32
25084;BME280;13075;55.682;37.564;2023-05-23T06:18:01;99826.38;;;24.30;60.99
25084;BME280;13075;55.682;37.564;2023-05-23T06:20:28;99825.72;;;24.48;60.31
25084;BME280;13075;55.682;37.564;2023-05-23T06:22:56;99818.44;;;24.33;61.49
25084;BME280;13075;55.682;37.564;2023-05-23T06:25:21;99816.06;;;24.55;61.50
25084;BME280;13075;55.682;37.564;2023-05-23T06:27:47;99810.28;;;25.01;60.37
25084;BME280;13075;55.682;37.564;2023-05-23T06:30:14;99804.59;;;24.92;60.42
25084;BME280;13075;55.682;37.564;2023-05-23T06:32:39;99809.94;;;26.02;56.89
25084;BME280;13075;55.682;37.564;2023-05-23T06:35:05;99797.94;;;26.91;54.26
25084;BME280;13075;55.682;37.564;2023-05-23T06:37:32;99805.81;;;27.11;53.38
25084;BME280;13075;55.682;37.564;2023-05-23T06:39:58;99795.91;;;26.97;52.64
25084;BME280;13075;55.682;37.564;2023-05-23T06:42:24;99802.06;;;27.35;52.10
25084;BME280;13075;55.682;37.564;2023-05-23T06:45:09;99796.03;;;26.54;52.96
25084;BME280;13075;55.682;37.564;2023-05-23T06:47:36;99796.78;;;28.20;50.45
25084;BME280;13075;55.682;37.564;2023-05-23T06:50:02;99785.25;;;30.59;45.06
25084;BME280;13075;55.682;37.564;2023-05-23T06:52:27;99787.09;;;32.64;41.19
25084;BME280;13075;55.682;37.564;2023-05-23T06:54:53;99772.72;;;34.25;37.56
25084;BME280;13075;55.682;37.564;2023-05-23T06:57:18;99771.94;;;33.88;37.24
25084;BME280;13075;55.682;37.564;2023-05-23T06:59:44;99769.38;;;34.59;35.52
25084;BME280;13075;55.682;37.564;2023-05-23T07:02:10;99763.03;;;34.46;35.45
25084;BME280;13075;55.682;37.564;2023-05-23T07:04:36;99757.00;;;36.29;32.85
25084;BME280;13075;55.682;37.564;2023-05-23T07:07:08;99751.47;;;36.32;31.79
25084;BME280;13075;55.682;37.564;2023-05-23T07:09:33;99754.66;;;35.80;32.48
25084;BME280;13075;55.682;37.564;2023-05-23T07:12:07;99752.38;;;36.55;32.32
25084;BME280;13075;55.682;37.564;2023-05-23T07:14:36;99749.59;;;37.16;31.26
25084;BME280;13075;55.682;37.564;2023-05-23T07:17:03;99756.28;;;35.81;32.29
25084;BME280;13075;55.682;37.564;2023-05-23T07:19:29;99747.88;;;36.32;31.73
25084;BME280;13075;55.682;37.564;2023-05-23T07:21:55;99744.53;;;34.94;32.62
25084;BME280;13075;55.682;37.564;2023-05-23T07:24:21;99751.09;;;34.46;33.62
25084;BME280;13075;55.682;37.564;2023-05-23T07:26:46;99749.25;;;33.13;35.11
25084;BME280;13075;55.682;37.564;2023-05-23T07:29:12;99745.31;;;32.70;36.04
25084;BME280;13075;55.682;37.564;2023-05-23T07:31:37;99742.25;;;32.62;36.19
25084;BME280;13075;55.682;37.564;2023-05-23T07:34:03;99751.56;;;32.79;36.98
25084;BME280;13075;55.682;37.564;2023-05-23T07:36:36;99749.09;;;32.24;37.64
25084;BME280;13075;55.682;37.564;2023-05-23T07:39:06;99745.34;;;33.87;35.18
25084;BME280;13075;55.682;37.564;2023-05-23T07:41:32;99739.28;;;34.77;34.25
25084;BME280;13075;55.682;37.564;2023-05-23T07:43:57;99743.34;;;34.12;35.52
25084;BME280;13075;55.682;37.564;2023-05-23T07:46:23;99753.56;;;34.35;35.57
25084;BME280;13075;55.682;37.564;2023-05-23T07:48:48;99746.88;;;34.64;34.81
25084;BME280;13075;55.682;37.564;2023-05-23T07:51:14;99754.31;;;36.16;32.55
25084;BME280;13075;55.682;37.564;2023-05-23T07:53:43;99761.84;;;36.51;32.08
25084;BME280;13075;55.682;37.564;2023-05-23T07:56:11;99756.69;;;35.48;32.49
25084;BME280;13075;55.682;37.564;2023-05-23T07:58:39;99756.53;;;32.32;36.18
25084;BME280;13075;55.682;37.564;2023-05-23T08:01:06;99762.91;;;32.86;36.50
25084;BME280;13075;55.682;37.564;2023-05-23T08:03:55;99767.50;;;33.14;35.97
25084;BME280;13075;55.682;37.564;2023-05-23T08:06:30;99765.25;;;32.96;36.29
25084;BME280;13075;55.682;37.564;2023-05-23T08:08:59;99766.38;;;33.52;35.03
25084;BME280;13075;55.682;37.564;2023-05-23T08:11:25;99766.44;;;33.07;36.38
25084;BME280;13075;55.682;37.564;2023-05-23T08:13:53;99765.22;;;34.13;35.37
25084;BME280;13075;55.682;37.564;2023-05-23T08:16:40;99761.72;;;32.75;37.43
25084;BME280;13075;55.682;37.564;2023-05-23T08:19:15;99761.28;;;33.17;36.69
25084;BME280;13075;55.682;37.564;2023-05-23T08:21:40;99762.84;;;33.06;36.55
25084;BME280;13075;55.682;37.564;2023-05-23T08:24:06;99761.50;;;31.97;38.16
25084;BME280;13075;55.682;37.564;2023-05-23T08:26:33;99759.78;;;31.25;39.59
25084;BME280;13075;55.682;37.564;2023-05-23T08:29:02;99759.94;;;32.17;38.32
25084;BME280;13075;55.682;37.564;2023-05-23T08:31:29;99764.72;;;31.78;39.08
25084;BME280;13075;55.682;37.564;2023-05-23T08:33:56;99751.56;;;30.74;40.47
25084;BME280;13075;55.682;37.564;2023-05-23T08:36:22;99759.22;;;29.43;42.12
25084;BME280;13075;55.682;37.564;2023-05-23T08:38:48;99756.28;;;28.78;44.44
25084;BME280;13075;55.682;37.564;2023-05-23T08:41:22;99755.53;;;28.06;46.47
25084;BME280;13075;55.682;37.564;2023-05-23T08:43:51;99753.78;;;28.99;45.17
25084;BME280;13075;55.682;37.564;2023-05-23T08:46:23;99746.91;;;29.10;45.44
25084;BME280;13075;55.682;37.564;2023-05-23T08:48:52;99745.03;;;29.76;43.93
25084;BME280;13075;55.682;37.564;2023-05-23T08:51:26;99751.84;;;28.11;47.35
25084;BME280;13075;55.682;37.564;2023-05-23T08:53:53;99732.50;;;28.38;47.59
25084;BME280;13075;55.682;37.564;2023-05-23T08:56:22;99747.47;;;27.96;48.66
25084;BME280;13075;55.682;37.564;2023-05-23T08:58:49;99742.34;;;28.17;48.69
25084;BME280;13075;55.682;37.564;2023-05-23T09:01:18;99746.81;;;27.77;50.67
25084;BME280;13075;55.682;37.564;2023-05-23T09:03:47;99748.25;;;27.61;50.67
25084;BME280;13075;55.682;37.564;2023-05-23T09:06:33;99754.16;;;27.68;51.56
25084;BME280;13075;55.682;37.564;2023-05-23T09:08:59;99760.56;;;27.77;52.43
25084;BME280;13075;55.682;37.564;2023-05-23T09:11:25;99767.97;;;28.04;52.24
25084;BME280;13075;55.682;37.564;2023-05-23T09:13:51;99772.50;;;27.59;54.24
25084;BME280;13075;55.682;37.564;2023-05-23T09:16:18;99763.31;;;27.63;53.92
25084;BME280;13075;55.682;37.564;2023-05-23T09:18:54;99773.81;;;27.48;55.15
25084;BME280;13075;55.682;37.564;2023-05-23T09:21:22;99767.56;;;28.10;55.17
25084;BME280;13075;55.682;37.564;2023-05-23T09:23:55;99779.41;;;28.55;54.84
25084;BME280;13075;55.682;37.564;2023-05-23T09:26:21;99771.38;;;28.23;56.20
25084;BME280;13075;55.682;37.564;2023-05-23T09:28:47;99784.25;;;28.94;54.39
25084;BME280;13075;55.682;37.564;2023-05-23T09:31:13;99784.78;;;29.04;53.73
25084;BME280;13075;55.682;37.564;2023-05-23T09:33:42;99787.53;;;28.74;54.27
25084;BME280;13075;55.682;37.564;2023-05-23T09:36:08;99785.44;;;28.21;55.19
25084;BME280;13075;55.682;37.564;2023-05-23T09:38:37;99789.94;;;26.57;61.86
25084;BME280;13075;55.682;37.564;2023-05-23T09:41:03;99790.53;;;27.05;59.98
25084;BME280;13075;55.682;37.564;2023-05-23T09:43:29;99788.19;;;26.48;64.46
25084;BME280;13075;55.682;37.564;2023-05-23T09:45:55;99791.03;;;27.07;63.23
25084;BME280;13075;55.682;37.564;2023-05-23T09:48:28;99793.66;;;27.58;63.71
25084;BME280;13075;55.682;37.564;2023-05-23T09:50:56;99796.41;;;26.11;69.99
25084;BME280;13075;55.682;37.564;2023-05-23T09:53:22;99792.88;;;26.29;75.22
25084;BME280;13075;55.682;37.564;2023-05-23T09:55:50;99794.31;;;26.77;72.66
25084;BME280;13075;55.682;37.564;2023-05-23T09:58:19;99793.38;;;26.49;70.52
25084;BME280;13075;55.682;37.564;2023-05-23T10:00:48;99795.44;;;26.20;76.53
25084;BME280;13075;55.682;37.564;2023-05-23T10:03:16;99789.53;;;26.50;74.40
25084;BME280;13075;55.682;37.564;2023-05-23T10:05:48;99798.22;;;25.96;78.31
25084;BME280;13075;55.682;37.564;2023-05-23T10:13:37;99801.03;;;25.49;86.00
25084;BME280;13075;55.682;37.564;2023-05-23T10:16:07;99795.19;;;25.98;82.69
25084;BME280;13075;55.682;37.564;2023-05-23T10:18:37;99803.50;;;25.93;82.03
25084;BME280;13075;55.682;37.564;2023-05-23T10:21:05;99806.72;;;26.19;81.15
25084;BME280;13075;55.682;37.564;2023-05-23T10:23:33;99793.38;;;26.12;82.09
25084;BME280;13075;55.682;37.564;2023-05-23T10:26:00;99799.50;;;26.04;84.83
25084;BME280;13075;55.682;37.564;2023-05-23T10:28:27;99798.34;;;26.47;79.62
25084;BME280;13075;55.682;37.564;2023-05-23T10:30:52;99799.72;;;26.63;83.93
25084;BME280;13075;55.682;37.564;2023-05-23T10:33:18;99794.59;;;25.82;86.93
25084;BME280;13075;55.682;37.564;2023-05-23T10:35:49;99809.00;;;26.12;87.82
25084;BME280;13075;55.682;37.564;2023-05-23T10:38:27;99802.84;;;24.67;97.91
25084;BME280;13075;55.682;37.564;2023-05-23T10:46:19;99804.75;;;25.29;100.00
25084;BME280;13075;55.682;37.564;2023-05-23T10:48:45;99803.81;;;24.48;100.00
25084;BME280;13075;55.682;37.564;2023-05-23T10:51:12;99806.75;;;25.24;100.00
25084;BME280;13075;55.682;37.564;2023-05-23T10:53:45;99806.81;;;24.90;100.00
25084;BME280;13075;55.682;37.564;2023-05-23T10:56:21;99808.59;;;25.57;100.00
25084;BME280;13075;55.682;37.564;2023-05-23T10:58:54;99809.66;;;24.75;100.00
25084;BME280;13075;55.682;37.564;2023-05-23T11:01:20;99809.88;;;25.12;100.00
25084;BME280;13075;55.682;37.564;2023-05-23T11:09:09;99803.88;;;25.10;100.00
25084;BME280;13075;55.682;37.564;2023-05-23T11:14:19;99812.59;;;25.12;100.00
25084;BME280;13075;55.682;37.564;2023-05-23T11:16:45;99813.19;;;24.37;100.00
25084;BME280;13075;55.682;37.564;2023-05-23T11:21:44;99803.91;;;25.05;100.00
25084;BME280;13075;55.682;37.564;2023-05-23T11:24:10;99806.25;;;24.00;100.00
25084;BME280;13075;55.682;37.564;2023-05-23T11:26:35;99816.28;;;23.61;100.00
25084;BME280;13075;55.682;37.564;2023-05-23T11:29:01;99823.31;;;24.75;100.00
25084;BME280;13075;55.682;37.564;2023-05-23T11:31:29;99819.19;;;24.83;100.00
25084;BME280;13075;55.682;37.564;2023-05-23T11:33:55;99822.81;;;23.65;100.00
25084;BME280;13075;55.682;37.564;2023-05-23T11:36:21;99811.56;;;24.36;100.00
25084;BME280;13075;55.682;37.564;2023-05-23T11:38:51;99807.38;;;24.48;100.00
25084;BME280;13075;55.682;37.564;2023-05-23T11:41:17;99817.84;;;24.75;100.00
25084;BME280;13075;55.682;37.564;2023-05-23T11:43:51;99811.66;;;24.21;100.00
25084;BME280;13075;55.682;37.564;2023-05-23T11:46:17;99812.78;;;24.58;100.00
25084;BME280;13075;55.682;37.564;2023-05-23T11:48:46;99813.47;;;24.79;100.00
25084;BME280;13075;55.682;37.564;2023-05-23T11:51:12;99809.28;;;25.15;100.00
25084;BME280;13075;55.682;37.564;2023-05-23T11:53:37;99817.00;;;25.37;100.00
25084;BME280;13075;55.682;37.564;2023-05-23T11:56:03;99804.09;;;25.14;100.00
25084;BME280;13075;55.682;37.564;2023-05-23T11:58:38;99808.31;;;25.30;100.00
25084;BME280;13075;55.682;37.564;2023-05-23T12:01:04;99797.53;;;25.38;100.00
25084;BME280;13075;55.682;37.564;2023-05-23T12:03:33;99805.88;;;25.00;100.00
25084;BME280;13075;55.682;37.564;2023-05-23T12:05:59;99795.84;;;24.90;100.00
25084;BME280;13075;55.682;37.564;2023-05-23T12:08:26;99785.56;;;24.38;100.00
25084;BME280;13075;55.682;37.564;2023-05-23T12:11:00;99797.19;;;25.21;100.00
25084;BME280;13075;55.682;37.564;2023-05-23T12:13:29;99792.88;;;25.15;100.00
25084;BME280;13075;55.682;37.564;2023-05-23T12:15:55;99786.81;;;25.47;100.00
25084;BME280;13075;55.682;37.564;2023-05-23T12:18:21;99784.56;;;25.73;100.00
25084;BME280;13075;55.682;37.564;2023-05-23T12:20:50;99786.44;;;25.77;100.00
25084;BME280;13075;55.682;37.564;2023-05-23T12:23:22;99785.06;;;25.27;100.00
25084;BME280;13075;55.682;37.564;2023-05-23T12:25:51;99782.69;;;25.45;100.00
25084;BME280;13075;55.682;37.564;2023-05-23T12:28:17;99781.84;;;26.10;100.00
25084;BME280;13075;55.682;37.564;2023-05-23T12:30:42;99776.81;;;25.98;100.00
25084;BME280;13075;55.682;37.564;2023-05-23T12:33:08;99770.16;;;26.60;100.00
25084;BME280;13075;55.682;37.564;2023-05-23T12:35:34;99767.09;;;26.62;100.00
25084;BME280;13075;55.682;37.564;2023-05-23T12:38:00;99766.69;;;26.87;99.24
25084;BME280;13075;55.682;37.564;2023-05-23T12:40:25;99756.13;;;26.43;100.00
25084;BME280;13075;55.682;37.564;2023-05-23T12:42:52;99755.94;;;26.72;100.00
25084;BME280;13075;55.682;37.564;2023-05-23T12:45:21;99760.03;;;26.56;100.00
25084;BME280;13075;55.682;37.564;2023-05-23T12:47:47;99756.38;;;26.79;98.07
25084;BME280;13075;55.682;37.564;2023-05-23T12:50:13;99755.59;;;26.79;100.00
25084;BME280;13075;55.682;37.564;2023-05-23T12:52:38;99748.63;;;27.13;98.66
25084;BME280;13075;55.682;37.564;2023-05-23T12:55:04;99749.13;;;27.02;96.87
25084;BME280;13075;55.682;37.564;2023-05-23T12:57:30;99734.78;;;27.05;97.87
25084;BME280;13075;55.682;37.564;2023-05-23T12:59:56;99745.06;;;27.13;97.24
25084;BME280;13075;55.682;37.564;2023-05-23T13:02:25;99746.91;;;27.31;96.54
25084;BME280;13075;55.682;37.564;2023-05-23T13:04:51;99743.16;;;27.54;95.24
25084;BME280;13075;55.682;37.564;2023-05-23T13:07:16;99735.44;;;27.56;94.49
25084;BME280;13075;55.682;37.564;2023-05-23T13:09:42;99733.25;;;27.67;94.86
25084;BME280;13075;55.682;37.564;2023-05-23T13:12:07;99726.31;;;27.83;94.56
25084;BME280;13075;55.682;37.564;2023-05-23T13:14:33;99726.16;;;27.52;97.79
25084;BME280;13075;55.682;37.564;2023-05-23T13:16:59;99729.63;;;27.58;96.63